createdAt,value
2022-12-15T00:00:05.316Z,-4.21
2022-12-15T00:05:34.506Z,-4.26
2022-12-15T00:11:02.756Z,-4.32
2022-12-15T00:16:26.395Z,-4.36
2022-12-15T00:27:45.584Z,-4.44
2022-12-15T00:33:09.685Z,-4.50
2022-12-15T00:38:38.134Z,-4.53
2022-12-15T00:44:00.140Z,-4.58
2022-12-15T00:49:32.978Z,-4.60
2022-12-15T00:54:58.467Z,-4.62
2022-12-15T01:00:28.460Z,-4.65
2022-12-15T01:05:50.220Z,-4.67
2022-12-15T01:11:11.800Z,-4.71
2022-12-15T01:16:41.395Z,-4.75
2022-12-15T01:21:52.107Z,-4.80
2022-12-15T01:26:58.671Z,-4.83
2022-12-15T01:32:21.137Z,-4.88
2022-12-15T01:37:30.480Z,-4.95
2022-12-15T01:42:36.994Z,-4.97
2022-12-15T01:47:45.736Z,-4.99
2022-12-15T01:52:52.319Z,-5.01
2022-12-15T01:58:04.912Z,-4.99
2022-12-15T02:03:17.073Z,-4.98
2022-12-15T02:08:22.868Z,-4.98
2022-12-15T02:13:39.232Z,-4.97
2022-12-15T02:19:05.131Z,-4.97
2022-12-15T02:24:34.090Z,-4.98
2022-12-15T02:30:09.054Z,-5.00
2022-12-15T02:35:27.825Z,-5.02
2022-12-15T02:40:38.154Z,-5.04
2022-12-15T02:45:57.431Z,-5.06
2022-12-15T02:51:25.651Z,-5.10
2022-12-15T02:56:40.713Z,-5.11
2022-12-15T03:01:57.286Z,-5.14
2022-12-15T03:07:07.691Z,-5.15
2022-12-15T03:12:14.676Z,-5.15
2022-12-15T03:17:41.498Z,-5.16
2022-12-15T03:22:50.190Z,-5.20
2022-12-15T03:27:59.183Z,-5.21
2022-12-15T03:33:14.572Z,-5.20
2022-12-15T03:38:22.892Z,-5.20
2022-12-15T03:43:31.890Z,-5.20
2022-12-15T03:48:55.331Z,-5.17
2022-12-15T03:54:18.259Z,-5.16
2022-12-15T03:59:31.602Z,-5.14
2022-12-15T04:04:45.039Z,-5.11
2022-12-15T04:09:59.813Z,-5.11
2022-12-15T04:15:09.641Z,-5.12
2022-12-15T04:20:19.858Z,-5.11
2022-12-15T04:25:45.334Z,-5.11
2022-12-15T04:31:15.860Z,-5.10
2022-12-15T04:37:04.977Z,-5.09
2022-12-15T04:42:28.877Z,-5.11
2022-12-15T04:47:54.558Z,-5.08
2022-12-15T04:53:35.127Z,-5.09
2022-12-15T04:59:06.050Z,-5.06
2022-12-15T05:04:37.945Z,-5.06
2022-12-15T05:10:14.920Z,-5.05
2022-12-15T05:15:40.175Z,-5.04
2022-12-15T05:21:03.514Z,-5.04
2022-12-15T05:26:29.094Z,-5.04
2022-12-15T05:31:53.175Z,-5.03
2022-12-15T05:37:00.733Z,-5.06
2022-12-15T05:42:09.460Z,-5.06
2022-12-15T05:47:22.695Z,-5.06
2022-12-15T05:52:49.479Z,-5.06
2022-12-15T05:58:23.241Z,-5.01
2022-12-15T06:03:39.538Z,-5.04
2022-12-15T06:09:02.751Z,-5.01
2022-12-15T06:14:31.155Z,-5.00
2022-12-15T06:19:43.680Z,-5.00
2022-12-15T06:24:53.813Z,-5.00
2022-12-15T06:30:04.083Z,-5.03
2022-12-15T06:35:35.289Z,-5.03
2022-12-15T06:40:50.131Z,-5.02
2022-12-15T06:46:28.936Z,-5.05
2022-12-15T06:52:13.300Z,-5.06
2022-12-15T06:57:37.061Z,-5.06
2022-12-15T07:03:00.268Z,-5.05
2022-12-15T07:08:10.992Z,-5.04
2022-12-15T07:13:19.241Z,-5.01
2022-12-15T07:18:29.757Z,-4.98
2022-12-15T07:23:55.780Z,-4.95
2022-12-15T07:29:23.261Z,-4.93
2022-12-15T07:34:44.683Z,-4.90
2022-12-15T07:39:52.485Z,-4.86
2022-12-15T07:45:15.151Z,-4.82
2022-12-15T07:50:28.854Z,-4.76
2022-12-15T07:55:57.561Z,-4.69
2022-12-15T08:01:08.003Z,-4.63
2022-12-15T08:06:41.681Z,-4.61
2022-12-15T08:11:47.154Z,-4.55
2022-12-15T08:16:57.074Z,-4.49
2022-12-15T08:22:08.272Z,-4.41
2022-12-15T08:27:17.107Z,-4.28
2022-12-15T08:32:32.191Z,-4.16
2022-12-15T08:37:47.392Z,-4.01
2022-12-15T08:43:14.054Z,-3.88
2022-12-15T08:48:40.094Z,-3.70
2022-12-15T08:53:57.393Z,-3.50
2022-12-15T08:59:07.349Z,-3.35
2022-12-15T09:04:25.957Z,-3.21
2022-12-15T09:09:44.200Z,-3.04
2022-12-15T09:14:57.101Z,-2.88
2022-12-15T09:20:17.932Z,-2.69
2022-12-15T09:25:24.254Z,-2.51
2022-12-15T09:30:37.065Z,-2.30
2022-12-15T09:35:46.544Z,-2.13
2022-12-15T09:40:59.562Z,-1.80
2022-12-15T09:46:20.900Z,-1.46
2022-12-15T09:51:49.719Z,-1.43
2022-12-15T09:57:14.846Z,-1.28
2022-12-15T10:02:47.475Z,-1.09
2022-12-15T10:08:13.546Z,-1.05
2022-12-15T10:13:25.664Z,-0.92
2022-12-15T10:18:44.619Z,-0.82
2022-12-15T10:24:00.974Z,-0.66
2022-12-15T10:29:26.237Z,-0.37
2022-12-15T10:34:44.084Z,-0.21
2022-12-15T10:39:51.353Z,-0.02
2022-12-15T10:45:02.503Z,-0.04
2022-12-15T10:50:28.188Z,0.08
2022-12-15T10:55:42.433Z,0.23
2022-12-15T11:00:50.967Z,0.30
2022-12-15T11:05:58.173Z,0.16
2022-12-15T11:11:19.377Z,0.05
2022-12-15T11:16:28.803Z,0.13
2022-12-15T11:21:52.386Z,0.09
2022-12-15T11:27:27.788Z,0.13
2022-12-15T11:32:44.881Z,0.12
2022-12-15T11:38:05.093Z,0.10
2022-12-15T11:44:04.269Z,0.09
2022-12-15T11:49:41.541Z,0.08
2022-12-15T11:55:05.042Z,0.05
2022-12-15T12:00:16.010Z,0.08
2022-12-15T12:05:38.826Z,0.18
2022-12-15T12:10:56.316Z,0.24
2022-12-15T12:16:19.572Z,0.24
2022-12-15T12:21:38.339Z,0.28
2022-12-15T12:26:50.387Z,0.26
2022-12-15T12:32:05.911Z,0.30
2022-12-15T12:37:25.242Z,0.30
2022-12-15T12:42:48.039Z,0.27
2022-12-15T12:48:00.747Z,0.19
2022-12-15T12:53:32.270Z,0.16
2022-12-15T12:58:42.196Z,0.10
2022-12-15T13:04:11.054Z,0.09
2022-12-15T13:09:47.757Z,0.07
2022-12-15T13:15:25.749Z,0.03
2022-12-15T13:20:37.696Z,-0.03
2022-12-15T13:25:55.483Z,-0.07
2022-12-15T13:31:37.780Z,-0.09
2022-12-15T13:37:06.317Z,-0.13
2022-12-15T13:42:52.884Z,-0.14
2022-12-15T13:48:03.121Z,-0.14
2022-12-15T13:53:21.759Z,-0.14
2022-12-15T13:58:38.832Z,-0.17
2022-12-15T14:04:00.947Z,-0.19
2022-12-15T14:09:10.428Z,-0.25
2022-12-15T14:14:25.103Z,-0.26
2022-12-15T14:19:42.148Z,-0.31
2022-12-15T14:30:28.215Z,-0.44
2022-12-15T14:35:38.841Z,-0.46
2022-12-15T14:40:47.163Z,-0.52
2022-12-15T14:46:11.669Z,-0.58
2022-12-15T14:51:22.916Z,-0.62
2022-12-15T14:56:34.377Z,-0.66
2022-12-15T15:01:58.957Z,-0.72
2022-12-15T15:07:50.639Z,-0.75
2022-12-15T15:12:54.435Z,-0.83
2022-12-15T15:18:01.636Z,-0.86
2022-12-15T15:23:17.762Z,-0.89
2022-12-15T15:28:26.868Z,-0.93
2022-12-15T15:33:31.408Z,-1.00
2022-12-15T15:38:36.988Z,-1.03
2022-12-15T15:43:40.343Z,-1.07
2022-12-15T15:48:48.787Z,-1.12
2022-12-15T15:53:52.235Z,-1.15
2022-12-15T15:58:55.609Z,-1.19
2022-12-15T16:04:00.935Z,-1.22
2022-12-15T16:09:07.062Z,-1.24
2022-12-15T16:14:13.236Z,-1.28
2022-12-15T16:19:18.005Z,-1.30
2022-12-15T16:24:21.623Z,-1.32
2022-12-15T16:29:24.873Z,-1.36
2022-12-15T16:34:30.313Z,-1.39
2022-12-15T16:39:36.523Z,-1.43
2022-12-15T16:44:39.675Z,-1.45
2022-12-15T16:49:44.165Z,-1.45
2022-12-15T16:54:49.133Z,-1.45
2022-12-15T16:59:52.260Z,-1.46
2022-12-15T17:04:58.097Z,-1.48
2022-12-15T17:10:02.239Z,-1.52
2022-12-15T17:15:16.950Z,-1.54
2022-12-15T17:20:31.453Z,-1.58
2022-12-15T17:26:18.044Z,-1.63
2022-12-15T17:31:01.586Z,-1.70
2022-12-15T17:36:16.361Z,-1.75
2022-12-15T17:41:42.783Z,-1.83
2022-12-15T17:46:45.552Z,-1.88
2022-12-15T17:51:51.159Z,-1.93
2022-12-15T17:56:54.389Z,-1.99
2022-12-15T18:01:57.971Z,-2.02
2022-12-15T18:07:02.866Z,-2.05
2022-12-15T18:12:12.161Z,-2.06
2022-12-15T18:17:15.477Z,-2.08
2022-12-15T18:22:22.660Z,-2.09
2022-12-15T18:27:27.996Z,-2.10
2022-12-15T18:32:31.337Z,-2.12
2022-12-15T18:37:36.034Z,-2.15
2022-12-15T18:42:40.456Z,-2.20
2022-12-15T18:47:43.673Z,-2.20
2022-12-15T18:52:49.795Z,-2.19
2022-12-15T18:57:53.581Z,-2.23
2022-12-15T19:03:00.847Z,-2.28
2022-12-15T19:08:11.977Z,-2.31
2022-12-15T19:13:15.965Z,-2.34
2022-12-15T19:18:38.165Z,-2.40
2022-12-15T19:23:42.801Z,-2.44
2022-12-15T19:28:45.959Z,-2.46
2022-12-15T19:33:49.389Z,-2.51
2022-12-15T19:38:56.385Z,-2.56
2022-12-15T19:43:59.612Z,-2.61
2022-12-15T19:49:02.834Z,-2.65
2022-12-15T19:54:07.961Z,-2.69
2022-12-15T19:59:19.902Z,-2.71
2022-12-15T20:04:24.545Z,-2.74
2022-12-15T20:09:29.394Z,-2.76
2022-12-15T20:14:32.498Z,-2.80
2022-12-15T20:19:35.578Z,-2.81
2022-12-15T20:24:40.179Z,-2.86
2022-12-15T20:29:43.759Z,-2.90
2022-12-15T20:34:47.651Z,-2.95
2022-12-15T20:39:57.233Z,-3.00
2022-12-15T20:45:01.028Z,-3.04
2022-12-15T20:50:05.067Z,-3.08
2022-12-15T20:55:15.211Z,-3.10
2022-12-15T21:00:19.204Z,-3.16
2022-12-15T21:05:25.619Z,-3.22
2022-12-15T21:10:30.164Z,-3.30
2022-12-15T21:15:34.515Z,-3.34
2022-12-15T21:20:39.741Z,-3.37
2022-12-15T21:25:44.367Z,-3.40
2022-12-15T21:30:48.182Z,-3.39
2022-12-15T21:35:51.356Z,-3.42
2022-12-15T21:40:59.565Z,-3.38
2022-12-15T21:46:05.582Z,-3.39
2022-12-15T21:51:13.446Z,-3.36
2022-12-15T21:56:19.914Z,-3.32
2022-12-15T22:01:25.176Z,-3.31
2022-12-15T22:06:31.158Z,-3.32
2022-12-15T22:11:35.585Z,-3.36
2022-12-15T22:16:38.690Z,-3.38
2022-12-15T22:21:42.732Z,-3.38
2022-12-15T22:26:48.637Z,-3.41
2022-12-15T22:31:52.127Z,-3.40
2022-12-15T22:36:55.429Z,-3.46
2022-12-15T22:42:00.278Z,-3.45
2022-12-15T22:47:05.216Z,-3.46
2022-12-15T22:52:16.466Z,-3.47
2022-12-15T22:57:24.654Z,-3.47
2022-12-15T23:02:28.879Z,-3.50
2022-12-15T23:07:32.795Z,-3.50
2022-12-15T23:12:37.334Z,-3.56
2022-12-15T23:17:40.454Z,-3.57
2022-12-15T23:22:43.859Z,-3.57
2022-12-15T23:27:48.398Z,-3.56
2022-12-15T23:32:52.053Z,-3.60
2022-12-15T23:37:59.081Z,-3.58
2022-12-15T23:43:04.240Z,-3.56
2022-12-15T23:48:07.908Z,-3.57
2022-12-15T23:53:11.034Z,-3.54
2022-12-15T23:58:15.744Z,-3.55
